Time;durP1;ratioP1;P1;durP2;ratioP2;P2;SDS_P1;SDS_P2;PMS_P1;PMS_P2;Temp;Humidity;BMP_temperature;BMP_pressure;BME280_temperature;BME280_humidity;BME280_pressure;Samples;Min_cycle;Max_cycle;Signal;HPM_P1;HPM_P2
2023/06/14 00:02:12;;;;;;;4.35;3.00;;;11.80;99.90;;;;;;5106679;28;20027;-51
2023/06/14 00:04:39;;;;;;;4.80;2.60;;;11.80;99.90;;;;;;5089000;28;20024;-55
2023/06/14 00:07:08;;;;;;;3.70;2.40;;;11.80;99.90;;;;;;5104140;28;20042;-54
2023/06/14 00:09:33;;;;;;;3.70;2.33;;;11.80;99.90;;;;;;5087646;28;20107;-56
2023/06/14 00:11:58;;;;;;;2.85;2.42;;;11.80;99.90;;;;;;5108719;28;20463;-55
2023/06/14 00:14:24;;;;;;;6.10;3.40;;;11.80;99.90;;;;;;5087884;28;20028;-54
2023/06/14 00:16:52;;;;;;;3.53;2.53;;;11.80;99.90;;;;;;5108685;28;20092;-55
2023/06/14 00:19:19;;;;;;;3.28;2.42;;;11.70;99.90;;;;;;5087310;28;20028;-51
2023/06/14 00:21:45;;;;;;;3.28;2.47;;;11.70;99.90;;;;;;5108880;28;20118;-56
2023/06/14 00:24:11;;;;;;;3.85;2.90;;;11.70;99.90;;;;;;5087609;28;20085;-53
2023/06/14 00:26:36;;;;;;;3.88;2.55;;;11.70;99.90;;;;;;5108510;28;20036;-55
2023/06/14 00:29:02;;;;;;;5.90;2.60;;;11.70;99.90;;;;;;5097681;28;20470;-51
2023/06/14 00:31:27;;;;;;;5.75;3.10;;;11.70;99.90;;;;;;5089347;28;20021;-53
2023/06/14 00:33:53;;;;;;;5.13;2.70;;;11.60;99.90;;;;;;5092041;28;20031;-54
2023/06/14 00:36:19;;;;;;;4.65;2.85;;;11.60;99.90;;;;;;5108549;28;20380;-55
2023/06/14 00:38:44;;;;;;;3.25;2.53;;;11.60;99.90;;;;;;5087375;28;20031;-56
2023/06/14 00:41:10;;;;;;;3.05;2.10;;;11.60;99.90;;;;;;5108406;28;20054;-55
2023/06/14 00:43:35;;;;;;;3.75;2.70;;;11.50;99.90;;;;;;5087483;28;20024;-52
2023/06/14 00:46:01;;;;;;;2.50;2.30;;;11.50;99.90;;;;;;5108340;28;20081;-53
2023/06/14 00:48:28;;;;;;;3.58;2.35;;;11.50;99.90;;;;;;5086284;28;20013;-55
2023/06/14 00:50:54;;;;;;;3.65;2.60;;;11.40;99.90;;;;;;5108472;28;20026;-53
2023/06/14 00:53:22;;;;;;;3.22;2.03;;;11.40;99.90;;;;;;5068309;28;20488;-54
2023/06/14 00:55:48;;;;;;;3.30;2.40;;;11.40;99.90;;;;;;5108470;28;20257;-55
2023/06/14 00:58:14;;;;;;;3.53;2.42;;;11.30;99.90;;;;;;5087133;28;20028;-56
2023/06/14 01:00:40;;;;;;;5.65;2.70;;;11.30;99.90;;;;;;5108265;28;20035;-56
2023/06/14 01:03:06;;;;;;;3.08;2.28;;;11.20;99.90;;;;;;5087496;28;20043;-57
2023/06/14 01:05:32;;;;;;;4.28;2.28;;;11.20;99.90;;;;;;5099688;28;20032;-55
2023/06/14 01:08:25;;;;;;;5.25;2.75;;;11.10;99.90;;;;;;5092943;28;20027;-56
2023/06/14 01:10:59;;;;;;;2.38;2.05;;;11.00;99.90;;;;;;5071184;28;20241;-54
2023/06/14 01:13:35;;;;;;;4.55;2.35;;;11.00;99.90;;;;;;5072282;28;20032;-54
2023/06/14 01:16:03;;;;;;;2.83;2.08;;;11.00;99.90;;;;;;5072257;28;20027;-52
2023/06/14 01:18:29;;;;;;;4.10;2.08;;;10.90;99.90;;;;;;5111617;28;20114;-54
2023/06/14 01:20:55;;;;;;;3.15;1.98;;;10.80;99.90;;;;;;5090648;28;20035;-55
2023/06/14 01:23:22;;;;;;;3.63;2.33;;;10.80;99.90;;;;;;5112835;28;20032;-55
2023/06/14 01:25:52;;;;;;;4.75;2.75;;;10.70;99.90;;;;;;5092864;28;20038;-54
2023/06/14 01:28:20;;;;;;;4.63;2.28;;;10.70;99.90;;;;;;5073994;28;20097;-56
2023/06/14 01:30:48;;;;;;;7.68;2.53;;;10.60;99.90;;;;;;5092155;28;20228;-56
2023/06/14 01:33:19;;;;;;;3.05;2.20;;;10.60;99.90;;;;;;5089239;28;20028;-54
2023/06/14 01:35:47;;;;;;;3.30;2.40;;;10.50;99.90;;;;;;5112317;28;20051;-56
2023/06/14 01:38:14;;;;;;;3.97;2.33;;;10.50;99.90;;;;;;5090290;28;20020;-55
2023/06/14 01:40:41;;;;;;;5.93;2.53;;;10.40;99.90;;;;;;5111471;28;20115;-56
2023/06/14 01:43:07;;;;;;;2.88;2.35;;;10.40;99.90;;;;;;5096250;28;20026;-56
2023/06/14 01:45:34;;;;;;;2.28;1.90;;;10.40;99.90;;;;;;5092330;28;20040;-54
2023/06/14 01:48:00;;;;;;;4.47;2.72;;;10.30;99.90;;;;;;5109582;28;20062;-56
2023/06/14 01:50:31;;;;;;;5.97;2.65;;;10.30;99.90;;;;;;5112193;28;20024;-55
2023/06/14 01:52:56;;;;;;;3.50;2.58;;;10.20;99.90;;;;;;5096490;28;20023;-54
2023/06/14 01:55:22;;;;;;;7.50;2.78;;;10.20;99.90;;;;;;5111868;28;20020;-52
2023/06/14 01:57:47;;;;;;;3.22;2.30;;;10.20;99.90;;;;;;5094019;28;20027;-54
2023/06/14 02:00:14;;;;;;;3.75;2.53;;;10.20;99.90;;;;;;5111853;28;20051;-56
2023/06/14 02:02:40;;;;;;;3.47;2.40;;;10.10;99.90;;;;;;5093930;28;20096;-54
2023/06/14 02:05:07;;;;;;;4.32;2.75;;;10.10;99.90;;;;;;5097901;28;20110;-54
2023/06/14 02:07:33;;;;;;;8.02;3.40;;;10.20;99.90;;;;;;5091189;28;20024;-55
2023/06/14 02:09:58;;;;;;;5.45;2.97;;;10.20;99.90;;;;;;5108361;28;20019;-55
2023/06/14 02:12:24;;;;;;;4.22;2.97;;;10.20;99.90;;;;;;5111831;28;20099;-56
2023/06/14 02:14:49;;;;;;;4.78;3.35;;;10.20;99.90;;;;;;5092560;28;20039;-53
2023/06/14 02:17:15;;;;;;;4.72;3.42;;;10.20;99.90;;;;;;5110648;28;20051;-53
2023/06/14 02:19:42;;;;;;;6.00;3.08;;;10.30;99.90;;;;;;5091348;28;20454;-56
2023/06/14 02:22:07;;;;;;;6.68;3.20;;;10.30;99.90;;;;;;5111236;28;20023;-53
2023/06/14 02:24:33;;;;;;;4.68;3.13;;;10.30;99.90;;;;;;5090103;28;20032;-51
2023/06/14 02:26:58;;;;;;;5.88;3.15;;;10.30;99.90;;;;;;5111566;28;20023;-56
2023/06/14 02:29:24;;;;;;;6.90;4.10;;;10.30;99.90;;;;;;5091135;28;20450;-56
2023/06/14 02:31:49;;;;;;;8.68;3.70;;;10.20;99.90;;;;;;5109061;28;20034;-56
2023/06/14 02:34:17;;;;;;;5.15;2.55;;;10.20;99.90;;;;;;5091333;28;20102;-56
2023/06/14 02:36:45;;;;;;;4.18;3.17;;;10.20;99.90;;;;;;5090289;28;20107;-56
2023/06/14 02:39:11;;;;;;;4.60;3.22;;;10.20;99.90;;;;;;5110917;28;20016;-53
2023/06/14 02:41:36;;;;;;;3.92;3.10;;;10.20;99.90;;;;;;5089378;28;20108;-54
2023/06/14 02:44:02;;;;;;;3.65;2.85;;;10.20;99.90;;;;;;5108898;28;20037;-57
2023/06/14 02:46:28;;;;;;;5.40;3.15;;;10.20;99.90;;;;;;5089486;28;20437;-57
2023/06/14 02:48:53;;;;;;;4.95;3.22;;;10.20;99.90;;;;;;5110066;28;20042;-54
2023/06/14 02:51:18;;;;;;;4.40;2.88;;;10.20;99.90;;;;;;5089340;28;20051;-53
2023/06/14 02:53:44;;;;;;;4.00;3.33;;;10.30;99.90;;;;;;5108584;28;20024;-54
2023/06/14 02:56:11;;;;;;;4.60;3.42;;;10.20;99.90;;;;;;5089092;28;20031;-57
2023/06/14 02:58:37;;;;;;;5.85;2.78;;;10.30;99.90;;;;;;5110275;28;20475;-55
2023/06/14 03:01:05;;;;;;;5.25;3.08;;;10.30;99.90;;;;;;5088895;28;20024;-56
2023/06/14 03:03:31;;;;;;;4.28;3.33;;;10.30;99.90;;;;;;5108767;28;20077;-56
2023/06/14 03:05:57;;;;;;;6.85;3.17;;;10.30;99.90;;;;;;5086210;28;20138;-54
2023/06/14 03:08:26;;;;;;;4.32;3.15;;;10.30;99.90;;;;;;5109890;28;20085;-56
2023/06/14 03:10:53;;;;;;;5.00;3.63;;;10.30;99.90;;;;;;5088272;28;20028;-56
2023/06/14 03:13:22;;;;;;;4.22;3.22;;;10.30;99.90;;;;;;5109879;28;20417;-56
2023/06/14 03:15:50;;;;;;;6.20;3.30;;;10.30;99.90;;;;;;5088535;28;20149;-56
2023/06/14 03:18:19;;;;;;;5.07;3.13;;;10.40;99.90;;;;;;5109991;28;20034;-56
2023/06/14 03:20:45;;;;;;;6.05;3.25;;;10.40;99.90;;;;;;5088160;28;20028;-56
2023/06/14 03:23:11;;;;;;;4.72;3.35;;;10.40;99.90;;;;;;5110180;28;20204;-57
2023/06/14 03:25:38;;;;;;;3.85;2.72;;;10.50;99.90;;;;;;5088408;28;20487;-56
2023/06/14 03:28:04;;;;;;;5.00;2.90;;;10.50;99.90;;;;;;5103128;28;20544;-54
2023/06/14 03:30:31;;;;;;;5.28;3.00;;;10.60;99.90;;;;;;5087189;28;20331;-56
2023/06/14 03:32:56;;;;;;;3.90;2.97;;;10.70;99.90;;;;;;5088010;28;20042;-58
2023/06/14 03:35:23;;;;;;;6.03;3.20;;;10.80;99.90;;;;;;5074197;28;20044;-51
2023/06/14 03:37:48;;;;;;;10.90;3.70;;;11.10;99.90;;;;;;5106870;28;20051;-54
2023/06/14 03:40:16;;;;;;;6.95;3.10;;;11.50;99.90;;;;;;5085899;28;20070;-58
2023/06/14 03:42:41;;;;;;;6.68;3.38;;;11.80;99.90;;;;;;5094705;28;20435;-55
2023/06/14 03:45:07;;;;;;;4.15;2.85;;;12.50;99.90;;;;;;5080988;28;20028;-57
2023/06/14 03:47:34;;;;;;;4.72;2.70;;;13.10;99.90;;;;;;5107268;28;20074;-57
2023/06/14 03:50:00;;;;;;;9.38;2.92;;;13.70;99.90;;;;;;5086495;28;20373;-54
2023/06/14 03:52:26;;;;;;;5.68;2.85;;;14.40;99.90;;;;;;5107923;28;20137;-56
2023/06/14 03:54:51;;;;;;;3.42;2.58;;;15.00;99.00;;;;;;5097488;28;20474;-59
2023/06/14 03:57:17;;;;;;;6.50;2.42;;;15.50;96.70;;;;;;5088698;28;20035;-56
2023/06/14 03:59:42;;;;;;;5.00;3.15;;;16.00;94.50;;;;;;5101259;28;20063;-57
2023/06/14 04:02:09;;;;;;;4.28;3.10;;;16.50;93.10;;;;;;5086909;28;20063;-56
2023/06/14 04:04:35;;;;;;;4.90;2.72;;;16.90;91.70;;;;;;5105692;28;20614;-57
2023/06/14 04:07:03;;;;;;;2.83;2.63;;;17.30;90.40;;;;;;5084392;28;20057;-54
2023/06/14 04:09:29;;;;;;;9.05;3.05;;;17.80;87.10;;;;;;5105564;28;20019;-56
2023/06/14 04:11:55;;;;;;;7.65;3.70;;;18.20;82.00;;;;;;5089715;28;20109;-56
2023/06/14 04:14:21;;;;;;;4.80;3.03;;;18.40;73.90;;;;;;5106203;28;20107;-57
2023/06/14 04:16:47;;;;;;;3.92;3.33;;;18.80;77.70;;;;;;5109412;28;20135;-54
2023/06/14 04:19:13;;;;;;;3.83;3.35;;;19.20;72.70;;;;;;5093207;28;20031;-56
2023/06/14 04:21:38;;;;;;;4.45;3.28;;;19.50;71.60;;;;;;5109208;28;20080;-54
2023/06/14 04:24:04;;;;;;;3.35;2.70;;;19.90;71.40;;;;;;5091976;28;20059;-54
2023/06/14 04:26:33;;;;;;;6.45;3.13;;;20.30;68.10;;;;;;5108866;28;20391;-55
2023/06/14 04:29:01;;;;;;;3.78;2.90;;;20.70;65.60;;;;;;5092775;28;20033;-57
2023/06/14 04:31:33;;;;;;;5.25;3.22;;;21.10;65.40;;;;;;5108668;28;20088;-55
2023/06/14 04:33:59;;;;;;;3.67;3.28;;;21.40;62.20;;;;;;5074184;28;20412;-54
2023/06/14 04:36:26;;;;;;;4.88;3.40;;;21.70;58.60;;;;;;5109162;28;20490;-53
2023/06/14 04:38:54;;;;;;;7.13;3.40;;;21.90;57.20;;;;;;5089225;28;20360;-55
2023/06/14 04:41:22;;;;;;;5.65;3.47;;;21.20;56.40;;;;;;5095747;28;20483;-55
2023/06/14 04:43:49;;;;;;;5.32;3.45;;;20.20;57.60;;;;;;5067459;28;20071;-56
2023/06/14 04:46:15;;;;;;;5.13;3.15;;;19.60;59.40;;;;;;5107335;28;20497;-57
2023/06/14 04:48:42;;;;;;;5.75;3.08;;;19.20;61.00;;;;;;5109061;28;20031;-55
2023/06/14 04:51:10;;;;;;;4.45;3.17;;;18.80;60.80;;;;;;5088931;28;20039;-54
2023/06/14 04:53:36;;;;;;;4.55;3.45;;;18.30;63.20;;;;;;5105871;28;20047;-53
2023/06/14 04:56:03;;;;;;;4.85;3.70;;;17.90;63.10;;;;;;5089015;28;20111;-55
2023/06/14 04:58:28;;;;;;;5.85;4.10;;;17.60;66.10;;;;;;5086407;28;20435;-56
2023/06/14 05:00:55;;;;;;;7.55;3.53;;;17.40;67.40;;;;;;5107870;28;20028;-54
2023/06/14 05:03:24;;;;;;;5.05;3.60;;;17.10;67.90;;;;;;5083433;28;20516;-52
2023/06/14 05:05:50;;;;;;;5.70;3.65;;;16.80;70.10;;;;;;5094118;28;20028;-54
2023/06/14 05:08:16;;;;;;;5.25;4.07;;;16.70;72.10;;;;;;5108714;28;20035;-57
2023/06/14 05:10:42;;;;;;;3.55;3.03;;;16.50;73.20;;;;;;5087070;28;20396;-56
2023/06/14 05:13:07;;;;;;;6.13;3.67;;;16.40;74.20;;;;;;5108617;28;20422;-52
2023/06/14 05:15:33;;;;;;;6.38;4.22;;;16.30;75.60;;;;;;5088640;28;20074;-54
2023/06/14 05:17:58;;;;;;;7.13;4.00;;;16.10;78.30;;;;;;5106759;28;20523;-55
2023/06/14 05:20:24;;;;;;;6.32;4.18;;;16.00;80.10;;;;;;5088516;28;20042;-56
2023/06/14 05:22:52;;;;;;;7.05;4.05;;;15.90;82.10;;;;;;5086872;28;20039;-56
2023/06/14 05:25:18;;;;;;;6.47;3.70;;;15.80;82.20;;;;;;5108453;28;20256;-55
2023/06/14 05:27:44;;;;;;;5.63;4.53;;;15.70;85.40;;;;;;5086997;28;20020;-56
2023/06/14 05:30:10;;;;;;;5.63;4.22;;;15.50;86.30;;;;;;5107538;28;20404;-54
2023/06/14 05:32:36;;;;;;;5.10;3.83;;;15.50;87.70;;;;;;5087069;28;20036;-57
2023/06/14 05:35:01;;;;;;;6.10;4.65;;;15.40;88.40;;;;;;5107476;28;20039;-52
2023/06/14 05:37:27;;;;;;;8.50;4.30;;;15.40;89.50;;;;;;5086642;28;20138;-55
2023/06/14 05:39:52;;;;;;;7.80;4.10;;;15.30;90.10;;;;;;5107886;28;20032;-52
2023/06/14 05:42:17;;;;;;;8.30;4.20;;;15.30;90.50;;;;;;5086470;28;20032;-56
2023/06/14 05:44:43;;;;;;;6.00;4.35;;;15.30;91.30;;;;;;5106479;28;20368;-56
2023/06/14 05:47:08;;;;;;;5.80;4.60;;;15.20;91.90;;;;;;5086486;28;20040;-55
2023/06/14 05:49:34;;;;;;;7.38;3.92;;;15.20;91.50;;;;;;5107550;28;20038;-55
2023/06/14 05:51:59;;;;;;;9.10;4.60;;;15.10;91.70;;;;;;5088175;28;20434;-55
2023/06/14 05:54:25;;;;;;;7.57;4.10;;;15.10;93.20;;;;;;5110881;28;20039;-53
2023/06/14 05:56:51;;;;;;;6.00;4.00;;;15.10;92.90;;;;;;5101027;28;20152;-52
2023/06/14 05:59:16;;;;;;;6.50;4.45;;;15.10;92.80;;;;;;5091962;28;20111;-56
2023/06/14 06:01:42;;;;;;;5.05;4.20;;;15.20;93.30;;;;;;5108810;28;20036;-51
2023/06/14 06:04:07;;;;;;;7.35;4.15;;;15.10;92.00;;;;;;5092348;28;20450;-55
2023/06/14 06:06:33;;;;;;;7.65;4.20;;;15.10;91.80;;;;;;5105941;28;20120;-55
2023/06/14 06:08:58;;;;;;;7.13;4.10;;;15.10;94.00;;;;;;5090328;28;20031;-55
2023/06/14 06:11:24;;;;;;;6.70;3.72;;;15.10;92.20;;;;;;5109029;28;20048;-55
2023/06/14 06:13:49;;;;;;;5.78;3.40;;;15.20;91.50;;;;;;5111413;28;20540;-54
2023/06/14 06:16:15;;;;;;;5.22;4.20;;;15.30;91.50;;;;;;5095703;28;20443;-53
2023/06/14 06:18:40;;;;;;;4.88;3.80;;;15.40;91.40;;;;;;5110005;28;20051;-56
2023/06/14 06:21:06;;;;;;;4.80;3.30;;;15.40;91.70;;;;;;5093880;28;20070;-56
2023/06/14 06:23:32;;;;;;;6.53;4.00;;;15.50;91.00;;;;;;5111448;28;20030;-53
2023/06/14 06:25:57;;;;;;;6.78;4.10;;;15.60;90.50;;;;;;5092473;28;20076;-56
2023/06/14 06:28:22;;;;;;;6.05;4.00;;;15.70;90.10;;;;;;5105118;28;20067;-55
2023/06/14 06:30:48;;;;;;;6.75;3.22;;;15.80;90.80;;;;;;5090813;28;20036;-57
2023/06/14 06:33:14;;;;;;;5.78;4.32;;;15.80;88.90;;;;;;5111029;28;20031;-57
2023/06/14 06:35:40;;;;;;;7.25;4.57;;;15.90;88.30;;;;;;5090028;28;20094;-57
2023/06/14 06:38:05;;;;;;;8.57;4.47;;;16.00;87.80;;;;;;5110846;28;20500;-56
2023/06/14 06:40:31;;;;;;;10.00;4.18;;;16.00;87.00;;;;;;5089724;28;20040;-54
2023/06/14 06:42:56;;;;;;;6.93;4.22;;;16.10;86.20;;;;;;5108807;28;20590;-57
2023/06/14 06:45:23;;;;;;;5.60;3.58;;;16.20;85.40;;;;;;5090923;28;20032;-55
2023/06/14 06:47:50;;;;;;;6.72;3.90;;;16.40;84.50;;;;;;5089694;28;20028;-56
2023/06/14 06:50:15;;;;;;;5.55;3.85;;;16.50;82.50;;;;;;5110226;28;20501;-56
2023/06/14 06:52:41;;;;;;;6.28;3.92;;;16.50;82.20;;;;;;5087494;28;20059;-56
2023/06/14 06:55:06;;;;;;;6.80;4.20;;;16.60;82.40;;;;;;5110277;28;20032;-64
2023/06/14 06:57:32;;;;;;;4.72;4.07;;;16.60;81.60;;;;;;5088837;28;20035;-60
2023/06/14 06:59:58;;;;;;;5.05;3.88;;;16.70;81.20;;;;;;5108547;28;20518;-60
2023/06/14 07:02:24;;;;;;;6.63;3.67;;;17.00;79.90;;;;;;5088147;28;20036;-60
2023/06/14 07:04:49;;;;;;;8.90;3.90;;;17.30;77.70;;;;;;5100391;28;20068;-60
2023/06/14 07:07:15;;;;;;;5.78;3.88;;;17.60;75.30;;;;;;5098908;28;20099;-60
2023/06/14 07:09:41;;;;;;;6.10;4.10;;;17.80;74.20;;;;;;5089893;28;20024;-60
2023/06/14 07:12:07;;;;;;;5.45;3.55;;;18.00;72.70;;;;;;5094605;28;20051;-60
2023/06/14 07:14:33;;;;;;;5.93;3.83;;;18.90;71.70;;;;;;5103788;28;20500;-59
2023/06/14 07:16:58;;;;;;;14.73;4.50;;;19.60;65.40;;;;;;5099814;28;20106;-60
2023/06/14 07:19:24;;;;;;;5.72;3.53;;;19.50;63.10;;;;;;5090320;28;20036;-60
2023/06/14 07:21:50;;;;;;;6.57;3.92;;;19.70;63.40;;;;;;5107452;28;20069;-60
2023/06/14 07:24:15;;;;;;;5.05;4.28;;;20.10;57.60;;;;;;5090076;28;20024;-59
2023/06/14 07:26:41;;;;;;;6.38;3.53;;;20.10;58.30;;;;;;5096201;28;20032;-59
2023/06/14 07:29:06;;;;;;;7.72;3.50;;;20.10;60.80;;;;;;5098079;28;20044;-60
2023/06/14 07:31:32;;;;;;;4.18;3.58;;;20.40;59.70;;;;;;5107102;28;20448;-60
2023/06/14 07:33:57;;;;;;;3.67;2.80;;;20.40;58.70;;;;;;5094701;28;20020;-59
2023/06/14 07:36:23;;;;;;;4.45;3.15;;;20.50;59.80;;;;;;5107793;28;20449;-60
2023/06/14 07:38:48;;;;;;;4.38;3.20;;;20.50;58.00;;;;;;5109717;28;20016;-59
2023/06/14 07:41:14;;;;;;;4.93;3.63;;;20.40;56.60;;;;;;5093496;28;20071;-60
2023/06/14 07:43:39;;;;;;;5.65;3.40;;;20.40;55.50;;;;;;5108334;28;20503;-59
2023/06/14 07:46:05;;;;;;;5.05;3.80;;;20.20;58.30;;;;;;5092532;28;20058;-60
2023/06/14 07:48:30;;;;;;;5.13;3.42;;;20.00;58.10;;;;;;5109558;28;20135;-60
2023/06/14 07:50:56;;;;;;;5.35;3.35;;;19.90;59.40;;;;;;5091182;28;20028;-60
2023/06/14 07:53:21;;;;;;;7.85;4.05;;;19.90;58.00;;;;;;5094477;28;20028;-59
2023/06/14 07:55:47;;;;;;;5.78;3.40;;;19.80;58.20;;;;;;5106546;28;20027;-60
2023/06/14 07:58:13;;;;;;;5.60;3.05;;;19.80;58.60;;;;;;5109570;28;20099;-60
2023/06/14 08:00:38;;;;;;;10.35;4.05;;;20.00;58.60;;;;;;5088302;28;20392;-59
2023/06/14 08:03:04;;;;;;;3.75;3.33;;;20.00;54.70;;;;;;5107966;28;20023;-60
2023/06/14 08:05:29;;;;;;;4.13;3.33;;;20.00;56.20;;;;;;5093455;28;20036;-60
2023/06/14 08:07:55;;;;;;;4.47;2.92;;;20.20;56.40;;;;;;5107214;28;20024;-60
2023/06/14 08:10:21;;;;;;;6.63;3.30;;;20.10;55.00;;;;;;5093266;28;20027;-60
2023/06/14 08:12:48;;;;;;;3.65;3.15;;;20.10;55.70;;;;;;5088704;28;20099;-60
2023/06/14 08:15:13;;;;;;;3.88;3.17;;;20.10;55.60;;;;;;5107549;28;20118;-60
2023/06/14 08:17:39;;;;;;;4.32;3.20;;;20.10;55.20;;;;;;5087580;28;20442;-61
2023/06/14 08:20:05;;;;;;;4.32;2.90;;;20.00;52.70;;;;;;5108384;28;20024;-60
2023/06/14 08:22:33;;;;;;;4.00;2.80;;;19.80;53.70;;;;;;5087497;28;20130;-59
2023/06/14 08:24:59;;;;;;;4.35;2.55;;;19.80;52.50;;;;;;5108494;28;20065;-60
2023/06/14 08:27:25;;;;;;;6.93;3.20;;;19.70;52.90;;;;;;5091285;28;20035;-59
2023/06/14 08:29:51;;;;;;;4.75;2.88;;;19.60;52.20;;;;;;5107863;28;20051;-59
2023/06/14 08:32:16;;;;;;;4.68;3.03;;;19.60;53.10;;;;;;5088952;28;20032;-59
2023/06/14 08:34:42;;;;;;;5.38;2.78;;;19.50;52.70;;;;;;5109064;28;20077;-59
2023/06/14 08:37:07;;;;;;;4.30;3.17;;;19.50;53.20;;;;;;5087526;28;20035;-60
2023/06/14 08:39:33;;;;;;;3.85;3.08;;;19.60;54.00;;;;;;5108934;28;20027;-60
2023/06/14 08:42:01;;;;;;;3.95;2.55;;;19.60;52.60;;;;;;5088935;28;20412;-60
2023/06/14 08:44:26;;;;;;;4.45;2.40;;;19.50;51.00;;;;;;5086669;28;20441;-60
2023/06/14 08:46:54;;;;;;;5.93;2.80;;;19.50;52.30;;;;;;5098003;28;20560;-60
2023/06/14 08:49:21;;;;;;;2.75;2.30;;;19.60;52.20;;;;;;5091948;28;20023;-60
2023/06/14 08:51:51;;;;;;;4.20;2.72;;;19.60;51.80;;;;;;5109085;28;20035;-59
2023/06/14 08:54:20;;;;;;;3.45;2.10;;;19.50;50.60;;;;;;5087352;28;20415;-59
2023/06/14 08:56:48;;;;;;;4.70;2.60;;;19.50;51.50;;;;;;5108977;28;20471;-59
2023/06/14 08:59:15;;;;;;;3.22;2.22;;;19.60;50.80;;;;;;5086512;28;20028;-59
2023/06/14 09:01:40;;;;;;;2.78;2.30;;;19.50;50.90;;;;;;5108106;28;20126;-60
2023/06/14 09:04:06;;;;;;;2.90;2.08;;;19.70;50.70;;;;;;5087127;28;20107;-60
2023/06/14 09:06:32;;;;;;;2.25;2.05;;;20.00;50.00;;;;;;5102451;28;20506;-59
2023/06/14 09:08:58;;;;;;;3.92;2.03;;;20.20;48.50;;;;;;5087191;28;20507;-60
2023/06/14 09:11:25;;;;;;;4.07;2.13;;;20.40;49.20;;;;;;5107936;28;20077;-59
2023/06/14 09:13:51;;;;;;;2.97;2.00;;;20.50;47.40;;;;;;5086899;28;20032;-59
2023/06/14 09:16:17;;;;;;;2.45;2.22;;;20.70;47.70;;;;;;5108009;28;20040;-59
2023/06/14 09:18:47;;;;;;;3.20;2.55;;;20.60;46.90;;;;;;5086868;28;20062;-60
2023/06/14 09:21:13;;;;;;;3.22;2.35;;;20.70;47.50;;;;;;5067798;28;20113;-59
2023/06/14 09:23:40;;;;;;;5.38;2.67;;;20.90;45.50;;;;;;5092319;28;20060;-60
2023/06/14 09:26:13;;;;;;;4.15;2.83;;;20.60;46.50;;;;;;5109554;28;20023;-59
2023/06/14 09:28:43;;;;;;;3.10;2.35;;;20.40;45.50;;;;;;5089662;28;20083;-59
2023/06/14 09:31:11;;;;;;;3.45;2.13;;;20.40;46.50;;;;;;5112330;28;20038;-59
2023/06/14 09:33:36;;;;;;;4.88;2.60;;;20.50;46.50;;;;;;5090148;28;20031;-60
2023/06/14 09:36:03;;;;;;;3.72;2.60;;;20.50;46.00;;;;;;5111712;28;20055;-60
2023/06/14 09:38:28;;;;;;;2.75;2.30;;;20.30;46.20;;;;;;5090416;28;20039;-60
2023/06/14 09:40:57;;;;;;;6.90;2.70;;;20.40;46.50;;;;;;5100051;28;20323;-60
2023/06/14 09:43:23;;;;;;;4.68;3.00;;;20.40;47.70;;;;;;5109996;28;20035;-60
2023/06/14 09:45:51;;;;;;;2.47;2.15;;;20.40;47.00;;;;;;5090586;28;20024;-60
2023/06/14 09:48:17;;;;;;;4.45;2.58;;;20.50;47.50;;;;;;5108055;28;20063;-59
2023/06/14 09:50:46;;;;;;;2.95;2.35;;;20.50;46.30;;;;;;5092203;28;20031;-60
2023/06/14 09:53:13;;;;;;;6.25;2.28;;;20.40;47.00;;;;;;5108082;28;20046;-60
2023/06/14 09:55:41;;;;;;;2.92;2.30;;;20.40;47.20;;;;;;5091734;28;20032;-60
2023/06/14 09:58:09;;;;;;;6.68;3.00;;;20.40;47.20;;;;;;5108114;28;20084;-59
2023/06/14 10:00:36;;;;;;;2.97;2.65;;;20.20;47.30;;;;;;5091762;28;20039;-59
2023/06/14 10:03:21;;;;;;;2.95;2.47;;;20.10;47.90;;;;;;5109172;28;20020;-59
2023/06/14 10:05:50;;;;;;;3.22;2.50;;;20.10;48.00;;;;;;5089550;28;20031;-60
2023/06/14 10:08:17;;;;;;;2.90;2.55;;;20.10;48.30;;;;;;5099055;28;20507;-60
2023/06/14 10:10:44;;;;;;;4.35;2.83;;;20.20;48.20;;;;;;5091180;28;20523;-60
2023/06/14 10:13:11;;;;;;;5.15;2.80;;;20.00;48.30;;;;;;5108913;28;20047;-60
2023/06/14 10:15:48;;;;;;;5.30;3.00;;;20.00;48.30;;;;;;5091314;28;20510;-60
2023/06/14 10:18:47;;;;;;;3.92;2.08;;;19.90;48.80;;;;;;5086805;28;20084;-59
2023/06/14 10:21:21;;;;;;;3.30;2.38;;;19.90;48.00;;;;;;5070700;28;20043;-60
2023/06/14 10:23:48;;;;;;;3.13;2.25;;;20.00;48.50;;;;;;5083326;28;20043;-60
2023/06/14 10:26:21;;;;;;;3.78;2.38;;;20.10;48.20;;;;;;5111010;28;20055;-59
2023/06/14 10:29:01;;;;;;;4.32;2.50;;;20.40;47.90;;;;;;5097269;28;20047;-60
2023/06/14 10:31:48;;;;;;;3.63;2.38;;;20.60;47.30;;;;;;5070720;28;20047;-59
2023/06/14 10:34:24;;;;;;;8.18;2.53;;;20.90;46.40;;;;;;5084851;28;20063;-60
2023/06/14 10:37:06;;;;;;;3.67;2.25;;;21.20;45.70;;;;;;5110286;28;20042;-60
2023/06/14 10:39:41;;;;;;;2.63;2.17;;;21.60;44.50;;;;;;5111246;28;20531;-60
2023/06/14 10:42:06;;;;;;;3.55;2.55;;;21.80;44.20;;;;;;5068890;28;20044;-60
2023/06/14 10:44:33;;;;;;;4.05;2.70;;;21.90;43.40;;;;;;5110866;28;20553;-59
2023/06/14 10:47:02;;;;;;;5.65;2.90;;;21.90;43.00;;;;;;5090717;28;20579;-60
2023/06/14 10:49:50;;;;;;;3.08;2.70;;;22.00;43.00;;;;;;5088572;28;20034;-60
2023/06/14 10:52:19;;;;;;;2.97;2.60;;;22.40;42.10;;;;;;5071415;28;20173;-59
2023/06/14 10:55:14;;;;;;;3.00;2.30;;;22.60;41.40;;;;;;5110681;28;20091;-59
2023/06/14 10:57:45;;;;;;;3.35;2.45;;;22.70;39.70;;;;;;5077740;28;20035;-60
2023/06/14 11:00:13;;;;;;;6.03;3.03;;;23.00;40.40;;;;;;5110456;28;20051;-59
2023/06/14 11:03:09;;;;;;;3.70;2.60;;;22.80;39.40;;;;;;5093272;28;20031;-60
2023/06/14 11:05:55;;;;;;;7.82;2.83;;;23.00;37.20;;;;;;5094826;28;20058;-59
2023/06/14 11:08:40;;;;;;;9.52;3.58;;;23.00;34.80;;;;;;5089031;28;20031;-59
2023/06/14 11:11:08;;;;;;;6.70;2.97;;;23.00;33.90;;;;;;5070013;28;20024;-60
2023/06/14 11:13:37;;;;;;;7.68;3.28;;;22.80;35.70;;;;;;5095592;28;20070;-60
2023/06/14 11:16:10;;;;;;;5.35;2.75;;;22.90;35.10;;;;;;5109998;28;20391;-59
2023/06/14 11:18:36;;;;;;;4.68;2.67;;;23.10;33.60;;;;;;5080448;28;20028;-59
2023/06/14 11:21:02;;;;;;;4.28;2.70;;;23.30;34.50;;;;;;5109359;28;20024;-60
2023/06/14 11:23:28;;;;;;;4.82;3.35;;;23.60;34.20;;;;;;5088585;28;20028;-60
2023/06/14 11:25:53;;;;;;;2.95;2.63;;;23.50;32.00;;;;;;5109414;28;20039;-60
2023/06/14 11:28:21;;;;;;;4.25;2.65;;;23.70;30.70;;;;;;5098548;28;20522;-59
2023/06/14 11:30:47;;;;;;;5.30;2.67;;;23.40;29.10;;;;;;5090122;28;20060;-59
2023/06/14 11:33:18;;;;;;;5.45;3.05;;;23.10;28.80;;;;;;5107176;28;20048;-59
2023/06/14 11:35:44;;;;;;;3.95;3.20;;;22.80;30.30;;;;;;5069315;28;20024;-60
2023/06/14 11:38:10;;;;;;;5.20;3.47;;;22.70;30.90;;;;;;5106866;28;20031;-60
2023/06/14 11:40:38;;;;;;;5.25;3.10;;;22.70;29.30;;;;;;5089604;28;20407;-60
2023/06/14 11:43:04;;;;;;;3.95;2.92;;;22.40;29.80;;;;;;5105955;28;20055;-60
2023/06/14 11:45:30;;;;;;;3.25;2.45;;;22.50;30.00;;;;;;5089932;28;20024;-59
2023/06/14 11:47:57;;;;;;;4.30;2.80;;;22.70;30.00;;;;;;5107033;28;20038;-59
2023/06/14 11:50:23;;;;;;;2.97;2.22;;;22.60;28.80;;;;;;5108472;28;20019;-60
2023/06/14 11:52:56;;;;;;;6.70;3.60;;;22.70;29.40;;;;;;5093919;27;20038;-60
2023/06/14 11:55:23;;;;;;;6.22;2.97;;;22.60;30.00;;;;;;5109732;27;20391;-60
2023/06/14 11:57:49;;;;;;;4.93;3.00;;;22.50;29.90;;;;;;5093609;28;20465;-59
2023/06/14 12:00:16;;;;;;;4.32;2.90;;;22.30;29.70;;;;;;5109686;28;20026;-60
2023/06/14 12:02:42;;;;;;;2.60;2.35;;;22.20;29.90;;;;;;5092796;27;20024;-60
2023/06/14 12:05:09;;;;;;;4.32;2.60;;;22.10;29.80;;;;;;5099761;28;20020;-59
2023/06/14 12:07:40;;;;;;;3.58;2.67;;;22.20;29.80;;;;;;5091214;28;20026;-59
2023/06/14 12:10:10;;;;;;;6.15;3.65;;;22.30;29.70;;;;;;5109637;28;20028;-59
2023/06/14 12:12:38;;;;;;;5.13;3.15;;;22.30;29.40;;;;;;5075359;28;20035;-59
2023/06/14 12:15:06;;;;;;;5.65;3.58;;;22.20;29.50;;;;;;5107058;28;20077;-59
2023/06/14 12:17:36;;;;;;;5.38;3.25;;;22.20;28.80;;;;;;5090304;28;20109;-59
2023/06/14 12:20:21;;;;;;;5.20;3.50;;;22.10;28.60;;;;;;5109208;28;20034;-60
2023/06/14 12:22:57;;;;;;;7.32;3.72;;;22.00;28.20;;;;;;5078054;28;20441;-59
2023/06/14 12:25:31;;;;;;;;;;;21.90;28.00;;;;;;5109502;28;20504;-60
2023/06/14 12:28:03;;;;;;;5.55;3.08;;;22.00;28.20;;;;;;5093842;28;19907;-60
2023/06/14 12:30:29;;;;;;;5.10;3.35;;;22.10;27.60;;;;;;5108916;28;20081;-60
2023/06/14 12:32:54;;;;;;;3.08;2.42;;;22.10;27.60;;;;;;5094148;28;20043;-60
2023/06/14 12:35:20;;;;;;;4.15;2.75;;;22.20;27.40;;;;;;5109128;28;20314;-60
2023/06/14 12:37:46;;;;;;;5.78;3.10;;;22.40;27.30;;;;;;5092587;28;20024;-60
2023/06/14 12:40:13;;;;;;;9.00;3.72;;;22.60;27.20;;;;;;5108855;28;20016;-60
2023/06/14 12:42:39;;;;;;;5.45;3.03;;;22.60;26.00;;;;;;5091454;28;20507;-60
2023/06/14 12:45:05;;;;;;;6.18;3.45;;;22.60;25.80;;;;;;5108879;28;20030;-59
2023/06/14 12:47:31;;;;;;;9.98;3.03;;;22.70;25.10;;;;;;5089251;28;20127;-60
2023/06/14 12:49:56;;;;;;;11.45;3.80;;;22.80;24.40;;;;;;5108733;28;20035;-60